createdAt,value
2022-08-25T00:06:28.150Z,97695.50
2022-08-25T00:16:31.947Z,97690.41
2022-08-25T00:26:34.500Z,97693.19
2022-08-25T00:36:37.892Z,97694.84
2022-08-25T00:46:45.063Z,97716.41
2022-08-25T00:56:49.492Z,97701.41
2022-08-25T01:06:52.767Z,97700.03
2022-08-25T01:16:55.865Z,97715.50
2022-08-25T01:26:58.528Z,97694.69
2022-08-25T01:37:01.005Z,97699.03
2022-08-25T01:47:04.979Z,97709.38
2022-08-25T01:57:07.492Z,97715.78
2022-08-25T02:07:10.029Z,97727.06
2022-08-25T02:17:12.431Z,97737.87
2022-08-25T02:27:15.009Z,97720.59
2022-08-25T02:37:17.281Z,97707.66
2022-08-25T02:47:19.827Z,97702.44
2022-08-25T02:57:29.630Z,97709.66
2022-08-25T03:07:31.925Z,97723.97
2022-08-25T03:17:37.970Z,97726.78
2022-08-25T03:27:40.889Z,97712.22
2022-08-25T03:37:43.189Z,97711.78
2022-08-25T03:47:51.610Z,97699.97
2022-08-25T03:57:57.008Z,97695.72
2022-08-25T04:08:02.346Z,97713.75
2022-08-25T04:18:06.106Z,97703.78
2022-08-25T04:28:10.561Z,97698.72
2022-08-25T04:38:14.029Z,97695.62
2022-08-25T04:48:18.678Z,97692.50
2022-08-25T04:58:21.124Z,97688.12
2022-08-25T05:08:24.633Z,97678.13
2022-08-25T05:18:30.092Z,97671.88
2022-08-25T05:28:33.005Z,97688.88
2022-08-25T05:38:35.661Z,97683.87
2022-08-25T05:48:42.531Z,97674.69
2022-08-25T05:58:48.207Z,97663.47
2022-08-25T06:08:52.087Z,97667.53
2022-08-25T06:18:56.123Z,97652.53
2022-08-25T06:28:58.746Z,97660.31
2022-08-25T06:39:02.282Z,97659.69
2022-08-25T06:49:07.232Z,97658.12
2022-08-25T06:59:12.877Z,97668.63
2022-08-25T07:09:39.030Z,97666.41
2022-08-25T07:19:43.107Z,97666.84
2022-08-25T07:29:59.027Z,97670.94
2022-08-25T07:40:30.477Z,97674.84
2022-08-25T08:01:30.331Z,97683.03
2022-08-25T08:11:53.833Z,97686.75
2022-08-25T08:22:11.507Z,97688.88
2022-08-25T08:32:36.756Z,97696.31
2022-08-25T08:43:47.043Z,97701.63
2022-08-25T09:17:03.158Z,97677.13
2022-08-25T09:28:04.308Z,97687.28
2022-08-25T09:38:12.838Z,97681.63
2022-08-25T09:48:34.657Z,97682.94
2022-08-25T09:58:43.223Z,97678.28
2022-08-25T10:08:46.884Z,97668.50
2022-08-25T10:19:27.456Z,97663.53
2022-08-25T10:29:47.069Z,97660.00
2022-08-25T10:39:59.858Z,97644.63
2022-08-25T10:50:13.790Z,97642.53
2022-08-25T11:00:22.749Z,97634.47
2022-08-25T11:10:38.471Z,97621.91
2022-08-25T11:20:52.388Z,97620.09
2022-08-25T11:30:58.673Z,97607.06
2022-08-25T11:41:26.036Z,97597.69
2022-08-25T11:51:36.377Z,97594.16
2022-08-25T12:01:44.065Z,97585.06
2022-08-25T12:11:59.623Z,97576.72
2022-08-25T12:22:04.176Z,97561.94
2022-08-25T12:32:20.836Z,97556.22
2022-08-25T12:42:49.912Z,97555.63
2022-08-25T12:52:56.831Z,97553.91
2022-08-25T13:03:29.246Z,97548.53
2022-08-25T13:14:06.729Z,97542.72
2022-08-25T13:24:22.672Z,97522.03
2022-08-25T13:34:35.073Z,97533.47
2022-08-25T13:44:52.407Z,97520.81
2022-08-25T13:55:05.629Z,97511.03
2022-08-25T14:05:13.832Z,97503.41
2022-08-25T14:15:20.681Z,97496.88
2022-08-25T14:25:28.400Z,97496.38
2022-08-25T14:35:35.483Z,97486.84
2022-08-25T14:45:42.981Z,97478.09
2022-08-25T14:55:58.726Z,97481.50
2022-08-25T15:06:02.248Z,97459.28
2022-08-25T15:16:07.753Z,97457.22
2022-08-25T15:26:14.430Z,97446.41
2022-08-25T15:36:20.616Z,97437.78
2022-08-25T15:46:25.340Z,97428.75
2022-08-25T15:56:29.696Z,97425.16
2022-08-25T16:06:32.725Z,97418.78
2022-08-25T16:16:35.440Z,97411.97
2022-08-25T16:26:48.143Z,97421.34
2022-08-25T16:36:51.864Z,97406.88
2022-08-25T16:46:56.067Z,97407.91
2022-08-25T16:56:59.013Z,97396.75
2022-08-25T17:07:02.483Z,97388.66
2022-08-25T17:17:07.159Z,97392.97
2022-08-25T17:27:11.020Z,97391.22
2022-08-25T17:37:13.637Z,97395.78
2022-08-25T17:47:17.096Z,97387.22
2022-08-25T17:57:21.394Z,97386.50
2022-08-25T18:07:24.443Z,97377.84
2022-08-25T18:17:27.859Z,97386.09
2022-08-25T18:27:32.399Z,97387.63
2022-08-25T18:37:53.475Z,97401.25
2022-08-25T18:48:00.154Z,97399.16
2022-08-25T18:58:07.656Z,97404.06
2022-08-25T19:08:14.152Z,97414.38
2022-08-25T19:18:29.058Z,97413.75
2022-08-25T19:28:33.509Z,97407.63
2022-08-25T19:38:38.173Z,97412.59
2022-08-25T19:48:42.398Z,97417.28
2022-08-25T19:58:47.904Z,97427.50
2022-08-25T20:08:59.293Z,97425.22
2022-08-25T20:19:07.306Z,97431.34
2022-08-25T20:29:13.439Z,97440.56
2022-08-25T20:39:18.150Z,97444.62
2022-08-25T20:49:22.044Z,97447.87
2022-08-25T20:59:27.731Z,97453.34
2022-08-25T21:09:30.253Z,97450.56
2022-08-25T21:19:33.613Z,97455.22
2022-08-25T21:29:36.178Z,97459.66
2022-08-25T21:39:38.880Z,97470.06
2022-08-25T21:49:44.124Z,97467.69
2022-08-25T21:59:46.797Z,97468.41
2022-08-25T22:09:49.372Z,97465.56
2022-08-25T22:19:53.760Z,97469.97
2022-08-25T22:29:56.571Z,97468.53
2022-08-25T22:39:59.002Z,97479.03
2022-08-25T22:50:01.583Z,97473.25
2022-08-25T23:00:07.818Z,97468.75
2022-08-25T23:10:12.831Z,97473.06
2022-08-25T23:20:33.897Z,97459.06
2022-08-25T23:30:36.340Z,97458.44
2022-08-25T23:40:43.821Z,97470.19
2022-08-25T23:50:54.168Z,97470.66
